createdAt,value
2019-05-07T00:00:09.318Z,1002.9
2019-05-07T00:01:08.117Z,1002.93
2019-05-07T00:02:06.411Z,1002.89
2019-05-07T00:03:04.558Z,1002.9
2019-05-07T00:04:02.027Z,1002.89
2019-05-07T00:04:59.371Z,1002.92
2019-05-07T00:05:59.053Z,1002.89
2019-05-07T00:07:02.205Z,1002.88
2019-05-07T00:07:57.458Z,1002.87
2019-05-07T00:08:59.815Z,1002.92
2019-05-07T00:09:59.583Z,1002.95
2019-05-07T00:10:58.613Z,1002.9
2019-05-07T00:11:56.615Z,1002.81
2019-05-07T00:12:54.962Z,1002.82
2019-05-07T00:13:54.908Z,1002.81
2019-05-07T00:15:01.249Z,1002.92
2019-05-07T00:15:55.451Z,1002.84
2019-05-07T00:16:53.991Z,1002.81
2019-05-07T00:17:54.844Z,1002.8
2019-05-07T00:18:54.463Z,1002.78
2019-05-07T00:19:52.619Z,1002.71
2019-05-07T00:20:54.678Z,1002.8
2019-05-07T00:21:53.527Z,1002.74
2019-05-07T00:22:55.156Z,1002.63
2019-05-07T00:23:57.952Z,1002.75
2019-05-07T00:24:58.818Z,1002.81
2019-05-07T00:25:56.793Z,1002.75
2019-05-07T00:26:54.310Z,1002.78
2019-05-07T00:27:54.423Z,1002.77
2019-05-07T00:28:55.764Z,1002.81
2019-05-07T00:29:53.995Z,1002.77
2019-05-07T00:30:53.368Z,1002.77
2019-05-07T00:31:52.177Z,1002.72
2019-05-07T00:32:49.451Z,1002.71
2019-05-07T00:33:47.477Z,1002.81
2019-05-07T00:34:44.780Z,1002.74
2019-05-07T00:35:42.886Z,1002.71
2019-05-07T00:36:42.104Z,1002.63
2019-05-07T00:37:45.207Z,1002.68
2019-05-07T00:38:43.660Z,1002.72
2019-05-07T00:39:42.401Z,1002.72
2019-05-07T00:40:39.602Z,1002.77
2019-05-07T00:41:38.231Z,1002.71
2019-05-07T00:42:37.120Z,1002.62
2019-05-07T00:43:35.211Z,1002.65
2019-05-07T00:44:43.385Z,1002.62
2019-05-07T00:45:44.244Z,1002.65
2019-05-07T00:46:46.432Z,1002.72
2019-05-07T00:47:46.768Z,1002.68
2019-05-07T00:48:44.447Z,1002.63
2019-05-07T00:49:47.363Z,1002.6
2019-05-07T00:50:52.831Z,1002.68
2019-05-07T00:51:54.084Z,1002.59
2019-05-07T00:52:53.454Z,1002.65
2019-05-07T00:53:54.700Z,1002.62
2019-05-07T00:54:53.424Z,1002.57
2019-05-07T00:55:52.823Z,1002.65
2019-05-07T00:56:53.037Z,1002.65
2019-05-07T00:57:52.588Z,1002.6
2019-05-07T00:58:49.253Z,1002.62
2019-05-07T00:59:53.805Z,1002.63
2019-05-07T01:00:53.434Z,1002.54
2019-05-07T01:01:52.841Z,1002.63
2019-05-07T01:02:52.563Z,1002.63
2019-05-07T01:03:49.440Z,1002.68
2019-05-07T01:04:47.695Z,1002.65
2019-05-07T01:05:45.790Z,1002.53
2019-05-07T01:06:43.202Z,1002.66
2019-05-07T01:07:42.030Z,1002.6
2019-05-07T01:08:46.881Z,1002.65
2019-05-07T01:09:46.158Z,1002.62
2019-05-07T01:10:43.434Z,1002.59
2019-05-07T01:11:43.029Z,1002.66
2019-05-07T01:12:42.854Z,1002.66
2019-05-07T01:13:43.175Z,1002.68
2019-05-07T01:14:41.969Z,1002.63
2019-05-07T01:15:47.154Z,1002.62
2019-05-07T01:16:47.544Z,1002.57
2019-05-07T01:17:45.205Z,1002.57
2019-05-07T01:18:45.335Z,1002.68
2019-05-07T01:19:47.398Z,1002.62
2019-05-07T01:20:54.722Z,1002.63
2019-05-07T01:21:54.265Z,1002.63
2019-05-07T01:22:54.403Z,1002.53
2019-05-07T01:23:55.522Z,1002.68
2019-05-07T01:24:53.224Z,1002.62
2019-05-07T01:25:53.192Z,1002.62
2019-05-07T01:26:54.123Z,1002.66
2019-05-07T01:27:53.277Z,1002.66
2019-05-07T01:28:49.503Z,1002.65
2019-05-07T01:29:47.667Z,1002.59
2019-05-07T01:30:56.027Z,1002.59
2019-05-07T01:31:55.570Z,1002.59
2019-05-07T01:33:02.778Z,1002.62
2019-05-07T01:33:56.169Z,1002.62
2019-05-07T01:34:55.903Z,1002.63
2019-05-07T01:35:57.883Z,1002.59
2019-05-07T01:36:56.853Z,1002.57
2019-05-07T01:37:55.249Z,1002.59
2019-05-07T01:38:52.632Z,1002.65
2019-05-07T01:39:54.929Z,1002.62
2019-05-07T01:40:52.618Z,1002.54
2019-05-07T01:41:52.411Z,1002.56
2019-05-07T01:42:52.974Z,1002.53
2019-05-07T01:43:49.468Z,1002.65
2019-05-07T01:44:46.877Z,1002.69
2019-05-07T01:45:49.711Z,1002.6
2019-05-07T01:46:46.229Z,1002.73
2019-05-07T01:47:43.664Z,1002.62
2019-05-07T01:48:43.331Z,1002.63
2019-05-07T01:49:52.415Z,1002.62
2019-05-07T01:50:48.434Z,1002.57
2019-05-07T01:51:47.149Z,1002.66
2019-05-07T01:52:52.605Z,1002.59
2019-05-07T01:53:52.518Z,1002.59
2019-05-07T01:54:49.538Z,1002.66
2019-05-07T01:55:57.069Z,1002.66
2019-05-07T01:56:59.245Z,1002.69
2019-05-07T01:57:56.793Z,1002.66
2019-05-07T01:58:54.234Z,1002.69
2019-05-07T01:59:52.987Z,1002.69
2019-05-07T02:00:53.066Z,1002.65
2019-05-07T02:01:52.261Z,1002.6
2019-05-07T02:02:56.193Z,1002.63
2019-05-07T02:04:02.178Z,1002.66
2019-05-07T02:05:03.011Z,1002.62
2019-05-07T02:05:58.803Z,1002.6
2019-05-07T02:06:58.012Z,1002.62
2019-05-07T02:07:57.035Z,1002.59
2019-05-07T02:08:54.933Z,1002.66
2019-05-07T02:09:53.848Z,1002.59
2019-05-07T02:10:52.369Z,1002.69
2019-05-07T02:11:50.175Z,1002.59
2019-05-07T02:12:48.294Z,1002.6
2019-05-07T02:13:48.912Z,1002.6
2019-05-07T02:14:53.236Z,1002.59
2019-05-07T02:15:58.552Z,1002.62
2019-05-07T02:16:00.456Z,1002.62
2019-05-07T02:16:52.922Z,1002.62
2019-05-07T02:17:52.544Z,1002.6
2019-05-07T02:18:49.113Z,1002.65
2019-05-07T02:19:47.366Z,1002.6
2019-05-07T02:20:49.466Z,1002.59
2019-05-07T02:21:49.583Z,1002.6
2019-05-07T02:22:47.515Z,1002.62
2019-05-07T02:23:52.369Z,1002.66
2019-05-07T02:24:53.593Z,1002.53
2019-05-07T02:25:56.922Z,1002.53
2019-05-07T02:26:54.533Z,1002.67
2019-05-07T02:27:52.835Z,1002.62
2019-05-07T02:28:51.872Z,1002.64
2019-05-07T02:29:52.864Z,1002.62
2019-05-07T02:30:53.318Z,1002.6
2019-05-07T02:31:48.877Z,1002.64
2019-05-07T02:32:49.349Z,1002.62
2019-05-07T02:33:53.804Z,1002.56
2019-05-07T02:34:49.353Z,1002.54
2019-05-07T02:35:47.394Z,1002.57
2019-05-07T02:36:44.827Z,1002.63
2019-05-07T02:37:51.063Z,1002.57
2019-05-07T02:37:53.506Z,1002.57
2019-05-07T02:37:56.911Z,1002.57
2019-05-07T02:38:44.511Z,1002.6
2019-05-07T02:39:45.187Z,1002.57
2019-05-07T02:40:43.321Z,1002.56
2019-05-07T02:41:43.944Z,1002.53
2019-05-07T02:42:38.908Z,1002.6
2019-05-07T02:43:43.631Z,1002.57
2019-05-07T02:44:44.202Z,1002.51
2019-05-07T02:45:45.843Z,1002.57
2019-05-07T02:46:43.532Z,1002.56
2019-05-07T02:47:43.508Z,1002.64
2019-05-07T02:48:42.867Z,1002.6
2019-05-07T02:49:43.907Z,1002.56
2019-05-07T02:50:43.783Z,1002.62
2019-05-07T02:51:44.071Z,1002.59
2019-05-07T02:52:44.228Z,1002.53
2019-05-07T02:53:43.121Z,1002.56
2019-05-07T02:54:39.698Z,1002.54
2019-05-07T02:55:38.290Z,1002.51
2019-05-07T02:56:36.415Z,1002.54
2019-05-07T02:57:36.059Z,1002.6
2019-05-07T02:58:36.121Z,1002.54
2019-05-07T02:59:36.487Z,1002.56
2019-05-07T03:00:39.186Z,1002.57
2019-05-07T03:01:36.564Z,1002.54
2019-05-07T03:02:34.943Z,1002.61
2019-05-07T03:03:33.528Z,1002.54
2019-05-07T03:04:43.558Z,1002.56
2019-05-07T03:05:42.999Z,1002.57
2019-05-07T03:06:38.421Z,1002.53
2019-05-07T03:07:38.585Z,1002.6
2019-05-07T03:08:37.425Z,1002.54
2019-05-07T03:09:44.059Z,1002.42
2019-05-07T03:10:43.453Z,1002.56
2019-05-07T03:11:43.540Z,1002.56
2019-05-07T03:12:45.563Z,1002.56
2019-05-07T03:13:44.129Z,1002.47
2019-05-07T03:14:43.822Z,1002.54
2019-05-07T03:15:43.229Z,1002.51
2019-05-07T03:16:47.841Z,1002.54
2019-05-07T03:16:49.608Z,1002.54
2019-05-07T03:17:42.983Z,1002.59
2019-05-07T03:18:45.700Z,1002.56
2019-05-07T03:19:53.207Z,1002.53
2019-05-07T03:20:49.475Z,1002.47
2019-05-07T03:21:54.908Z,1002.51
2019-05-07T03:22:53.912Z,1002.5
2019-05-07T03:23:53.823Z,1002.48
2019-05-07T03:24:52.703Z,1002.48
2019-05-07T03:25:55.608Z,1002.53
2019-05-07T03:26:55.119Z,1002.54
2019-05-07T03:27:54.631Z,1002.51
2019-05-07T03:28:53.633Z,1002.5
2019-05-07T03:29:53.365Z,1002.56
2019-05-07T03:30:49.826Z,1002.54
2019-05-07T03:31:47.844Z,1002.48
2019-05-07T03:32:49.178Z,1002.54
2019-05-07T03:33:56.074Z,1002.57
2019-05-07T03:34:57.821Z,1002.51
2019-05-07T03:34:58.512Z,1002.51
2019-05-07T03:35:56.286Z,1002.54
2019-05-07T03:36:55.703Z,1002.51
2019-05-07T03:36:56.978Z,1002.51
2019-05-07T03:37:54.664Z,1002.48
2019-05-07T03:38:49.811Z,1002.51
2019-05-07T03:39:47.290Z,1002.44
2019-05-07T03:40:49.071Z,1002.42
2019-05-07T03:41:46.303Z,1002.5
2019-05-07T03:42:47.693Z,1002.45
2019-05-07T03:43:44.952Z,1002.45
2019-05-07T03:44:44.657Z,1002.5
2019-05-07T03:45:44.915Z,1002.47
2019-05-07T03:46:56.750Z,1002.39
2019-05-07T03:46:57.692Z,1002.39
2019-05-07T03:47:01.897Z,1002.39
2019-05-07T03:47:54.193Z,1002.48
2019-05-07T03:48:53.080Z,1002.39
2019-05-07T03:49:56.811Z,1002.36
2019-05-07T03:50:54.156Z,1002.42
2019-05-07T03:51:53.865Z,1002.45
2019-05-07T03:52:54.306Z,1002.48
2019-05-07T03:53:50.368Z,1002.32
2019-05-07T03:54:54.336Z,1002.47
2019-05-07T03:55:54.275Z,1002.42
2019-05-07T03:57:02.465Z,1002.45
2019-05-07T03:57:10.875Z,1002.45
2019-05-07T03:57:11.092Z,1002.45
2019-05-07T03:57:57.082Z,1002.45
2019-05-07T03:58:58.700Z,1002.45
2019-05-07T03:59:56.990Z,1002.39
2019-05-07T04:00:56.680Z,1002.42
2019-05-07T04:01:55.845Z,1002.48
2019-05-07T04:02:55.081Z,1002.41
2019-05-07T04:03:53.625Z,1002.42
2019-05-07T04:04:53.130Z,1002.45
2019-05-07T04:05:53.103Z,1002.44
2019-05-07T04:06:49.306Z,1002.44
2019-05-07T04:07:47.009Z,1002.47
2019-05-07T04:08:47.218Z,1002.41
2019-05-07T04:09:55.390Z,1002.38
2019-05-07T04:10:56.871Z,1002.41
2019-05-07T04:11:54.392Z,1002.38
2019-05-07T04:12:53.334Z,1002.45
2019-05-07T04:13:53.571Z,1002.44
2019-05-07T04:14:55.528Z,1002.39
2019-05-07T04:15:53.133Z,1002.44
2019-05-07T04:16:53.176Z,1002.39
2019-05-07T04:17:49.345Z,1002.38
2019-05-07T04:18:49.590Z,1002.48
2019-05-07T04:19:47.840Z,1002.5
2019-05-07T04:20:45.310Z,1002.47
2019-05-07T04:21:45.152Z,1002.39
2019-05-07T04:22:43.453Z,1002.42
2019-05-07T04:23:43.301Z,1002.42
2019-05-07T04:24:38.296Z,1002.42
2019-05-07T04:25:38.584Z,1002.38
2019-05-07T04:26:38.183Z,1002.38
2019-05-07T04:27:37.031Z,1002.38
2019-05-07T04:28:36.321Z,1002.44
2019-05-07T04:29:35.290Z,1002.42
2019-05-07T04:30:35.028Z,1002.41
2019-05-07T04:31:34.288Z,1002.38
2019-05-07T04:32:30.072Z,1002.42
2019-05-07T04:33:27.778Z,1002.42
2019-05-07T04:34:29.441Z,1002.47
2019-05-07T04:35:33.164Z,1002.38
2019-05-07T04:36:34.213Z,1002.39
2019-05-07T04:37:32.984Z,1002.38
2019-05-07T04:38:29.181Z,1002.36
2019-05-07T04:39:33.471Z,1002.33
2019-05-07T04:40:29.183Z,1002.32
2019-05-07T04:41:27.321Z,1002.39
2019-05-07T04:42:27.869Z,1002.35
2019-05-07T04:43:25.380Z,1002.29
2019-05-07T04:44:23.727Z,1002.33
2019-05-07T04:45:23.562Z,1002.36
2019-05-07T04:46:23.612Z,1002.3
2019-05-07T04:47:34.660Z,1002.3
2019-05-07T04:47:38.506Z,1002.3
2019-05-07T04:47:41.608Z,1002.3
2019-05-07T04:48:19.652Z,1002.32
2019-05-07T04:49:18.459Z,1002.36
2019-05-07T04:50:36.762Z,1002.28
2019-05-07T04:50:38.110Z,1002.28
2019-05-07T04:50:39.456Z,1002.28
2019-05-07T04:51:18.395Z,1002.39
2019-05-07T04:52:16.783Z,1002.29
2019-05-07T04:53:16.969Z,1002.26
2019-05-07T04:54:15.537Z,1002.32
2019-05-07T04:55:14.024Z,1002.32
2019-05-07T04:56:14.057Z,1002.29
2019-05-07T04:57:16.003Z,1002.3
2019-05-07T04:58:14.156Z,1002.29
2019-05-07T04:59:14.757Z,1002.27
2019-05-07T05:00:13.459Z,1002.33
2019-05-07T05:01:14.141Z,1002.36
2019-05-07T05:02:13.474Z,1002.27
2019-05-07T05:03:12.890Z,1002.32
2019-05-07T05:04:25.747Z,1002.32
2019-05-07T05:04:28.978Z,1002.32
2019-05-07T05:04:30.188Z,1002.32
2019-05-07T05:05:12.936Z,1002.36
2019-05-07T05:06:29.809Z,1002.25
2019-05-07T05:07:27.186Z,1002.36
2019-05-07T05:08:24.956Z,1002.23
2019-05-07T05:09:23.613Z,1002.36
2019-05-07T05:10:23.914Z,1002.25
2019-05-07T05:11:24.693Z,1002.25
2019-05-07T05:12:23.142Z,1002.3
2019-05-07T05:13:23.964Z,1002.3
2019-05-07T05:14:28.845Z,1002.33
2019-05-07T05:15:27.364Z,1002.36
2019-05-07T05:16:24.811Z,1002.32
2019-05-07T05:17:23.730Z,1002.29
2019-05-07T05:18:22.998Z,1002.33
2019-05-07T05:19:20.393Z,1002.33
2019-05-07T05:20:24.124Z,1002.26
2019-05-07T05:21:22.804Z,1002.29
2019-05-07T05:22:18.352Z,1002.27
2019-05-07T05:23:16.927Z,1002.33
2019-05-07T05:24:16.993Z,1002.35
2019-05-07T05:25:15.441Z,1002.32
2019-05-07T05:26:14.721Z,1002.41
2019-05-07T05:27:15.709Z,1002.33
2019-05-07T05:28:18.792Z,1002.36
2019-05-07T05:29:16.481Z,1002.35
2019-05-07T05:30:18.795Z,1002.3
2019-05-07T05:31:23.365Z,1002.29
2019-05-07T05:32:23.600Z,1002.33
2019-05-07T05:33:26.516Z,1002.3
2019-05-07T05:34:25.654Z,1002.27
2019-05-07T05:35:24.136Z,1002.29
2019-05-07T05:36:22.313Z,1002.27
2019-05-07T05:37:22.696Z,1002.27
2019-05-07T05:38:22.182Z,1002.29
2019-05-07T05:39:24.120Z,1002.36
2019-05-07T05:40:22.665Z,1002.29
2019-05-07T05:41:23.579Z,1002.21
2019-05-07T05:42:29.319Z,1002.29
2019-05-07T05:43:27.153Z,1002.3
2019-05-07T05:44:25.575Z,1002.27
2019-05-07T05:45:23.478Z,1002.3
2019-05-07T05:46:22.647Z,1002.33
2019-05-07T05:47:18.952Z,1002.32
2019-05-07T05:48:17.452Z,1002.36
2019-05-07T05:49:14.752Z,1002.45
2019-05-07T05:50:13.627Z,1002.24
2019-05-07T05:51:15.981Z,1002.35
2019-05-07T05:52:14.253Z,1002.36
2019-05-07T05:53:12.285Z,1002.3
2019-05-07T05:54:10.069Z,1002.36
2019-05-07T05:55:12.158Z,1002.33
2019-05-07T05:56:11.427Z,1002.39
2019-05-07T05:57:14.937Z,1002.33
2019-05-07T05:58:12.325Z,1002.32
2019-05-07T05:59:11.964Z,1002.44
2019-05-07T06:00:12.657Z,1002.38
2019-05-07T06:01:13.106Z,1002.36
2019-05-07T06:02:11.948Z,1002.35
2019-05-07T06:03:07.432Z,1002.35
2019-05-07T06:04:07.840Z,1002.42
2019-05-07T06:05:05.834Z,1002.36
2019-05-07T06:06:03.233Z,1002.35
2019-05-07T06:07:10.626Z,1002.29
2019-05-07T06:07:11.207Z,1002.29
2019-05-07T06:07:14.053Z,1002.29
2019-05-07T06:08:04.948Z,1002.33
2019-05-07T06:09:09.431Z,1002.38
2019-05-07T06:10:07.026Z,1002.32
2019-05-07T06:11:05.031Z,1002.36
2019-05-07T06:12:06.298Z,1002.35
2019-05-07T06:13:03.807Z,1002.35
2019-05-07T06:14:02.307Z,1002.35
2019-05-07T06:15:01.674Z,1002.38
2019-05-07T06:16:03.932Z,1002.3
2019-05-07T06:17:06.993Z,1002.38
2019-05-07T06:18:18.809Z,1002.35
2019-05-07T06:18:21.046Z,1002.35
2019-05-07T06:18:21.393Z,1002.35
2019-05-07T06:19:13.981Z,1002.32
2019-05-07T06:20:12.180Z,1002.33
2019-05-07T06:21:16.168Z,1002.38
2019-05-07T06:22:18.031Z,1002.27
2019-05-07T06:23:17.759Z,1002.38
2019-05-07T06:24:17.789Z,1002.26
2019-05-07T06:25:15.591Z,1002.35
2019-05-07T06:26:15.768Z,1002.32
2019-05-07T06:27:14.361Z,1002.32
2019-05-07T06:28:13.300Z,1002.38
2019-05-07T06:29:16.210Z,1002.32
2019-05-07T06:30:13.859Z,1002.29
2019-05-07T06:31:22.307Z,1002.33
2019-05-07T06:32:22.892Z,1002.36
2019-05-07T06:33:32.430Z,1002.33
2019-05-07T06:34:28.439Z,1002.32
2019-05-07T06:35:25.665Z,1002.39
2019-05-07T06:36:25.085Z,1002.39
2019-05-07T06:37:22.961Z,1002.39
2019-05-07T06:38:22.600Z,1002.38
2019-05-07T06:39:22.157Z,1002.38
2019-05-07T06:40:20.356Z,1002.42
2019-05-07T06:41:24.333Z,1002.38
2019-05-07T06:42:22.138Z,1002.36
2019-05-07T06:43:18.629Z,1002.33
2019-05-07T06:44:16.206Z,1002.39
2019-05-07T06:45:17.021Z,1002.38
2019-05-07T06:46:14.086Z,1002.41
2019-05-07T06:47:13.197Z,1002.49
2019-05-07T06:48:37.219Z,1002.35
2019-05-07T06:48:37.800Z,1002.35
2019-05-07T06:48:38.929Z,1002.35
2019-05-07T06:49:19.147Z,1002.38
2019-05-07T06:50:16.759Z,1002.39
2019-05-07T06:51:17.796Z,1002.33
2019-05-07T06:52:15.491Z,1002.36
2019-05-07T06:53:15.794Z,1002.48
2019-05-07T06:54:16.342Z,1002.39
2019-05-07T06:55:13.585Z,1002.36
2019-05-07T06:56:23.046Z,1002.45
2019-05-07T06:57:26.710Z,1002.39
2019-05-07T06:58:25.345Z,1002.42
2019-05-07T06:59:34.551Z,1002.33
2019-05-07T07:00:31.739Z,1002.39
2019-05-07T07:01:32.361Z,1002.35
2019-05-07T07:02:28.357Z,1002.36
2019-05-07T07:03:32.795Z,1002.36
2019-05-07T07:04:29.846Z,1002.48
2019-05-07T07:05:33.943Z,1002.38
2019-05-07T07:06:33.859Z,1002.39
2019-05-07T07:07:37.472Z,1002.43
2019-05-07T07:08:36.318Z,1002.38
2019-05-07T07:09:34.311Z,1002.36
2019-05-07T07:10:35.356Z,1002.29
2019-05-07T07:11:34.041Z,1002.42
2019-05-07T07:12:32.969Z,1002.43
2019-05-07T07:13:29.393Z,1002.39
2019-05-07T07:14:28.095Z,1002.33
2019-05-07T07:15:25.055Z,1002.43
2019-05-07T07:16:23.229Z,1002.39
2019-05-07T07:17:22.312Z,1002.36
2019-05-07T07:18:19.798Z,1002.34
2019-05-07T07:19:18.116Z,1002.34
2019-05-07T07:20:17.193Z,1002.34
2019-05-07T07:21:15.350Z,1002.4
2019-05-07T07:22:13.109Z,1002.27
2019-05-07T07:23:11.822Z,1002.31
2019-05-07T07:24:12.778Z,1002.29
2019-05-07T07:25:11.774Z,1002.24
2019-05-07T07:26:08.042Z,1002.3
2019-05-07T07:27:13.215Z,1002.3
2019-05-07T07:28:12.328Z,1002.31
2019-05-07T07:29:07.913Z,1002.3
2019-05-07T07:30:05.153Z,1002.26
2019-05-07T07:31:05.020Z,1002.24
2019-05-07T07:32:04.851Z,1002.21
2019-05-07T07:33:04.622Z,1002.29
2019-05-07T07:34:07.453Z,1002.23
2019-05-07T07:35:05.003Z,1002.21
2019-05-07T07:36:06.504Z,1002.3
2019-05-07T07:37:08.605Z,1002.21
2019-05-07T07:37:14.960Z,1002.21
2019-05-07T07:37:15.866Z,1002.21
2019-05-07T07:38:02.442Z,1002.21
2019-05-07T07:39:03.463Z,1002.08
2019-05-07T07:40:06.193Z,1002.15
2019-05-07T07:41:05.425Z,1002.18
2019-05-07T07:42:06.983Z,1002.18
2019-05-07T07:43:12.873Z,1002.12
2019-05-07T07:44:10.280Z,1002.17
2019-05-07T07:45:13.240Z,1002.12
2019-05-07T07:46:13.099Z,1002.15
2019-05-07T07:47:09.305Z,1002.08
2019-05-07T07:48:09.571Z,1002.09
2019-05-07T07:49:11.258Z,1002.14
2019-05-07T07:49:14.917Z,1002.14
2019-05-07T07:50:08.403Z,1002.12
2019-05-07T07:51:09.664Z,1002.1
2019-05-07T07:52:12.068Z,1002.07
2019-05-07T07:53:09.436Z,1002.17
2019-05-07T07:54:07.369Z,1002.07
2019-05-07T07:55:04.823Z,1002.18
2019-05-07T07:56:02.649Z,1002.07
2019-05-07T07:57:03.260Z,1002.14
2019-05-07T07:58:05.708Z,1002.11
2019-05-07T07:59:02.743Z,1002.07
2019-05-07T08:00:02.415Z,1002.08
2019-05-07T08:00:58.382Z,1002.08
2019-05-07T08:01:58.130Z,1002.07
2019-05-07T08:02:56.805Z,1002.11
2019-05-07T08:03:54.673Z,1001.99
2019-05-07T08:04:54.011Z,1001.96
2019-05-07T08:05:57.268Z,1002.1
2019-05-07T08:06:59.555Z,1001.96
2019-05-07T08:07:58.186Z,1001.98
2019-05-07T08:08:56.455Z,1002.07
2019-05-07T08:09:53.427Z,1001.95
2019-05-07T08:10:51.963Z,1002.04
2019-05-07T08:11:48.808Z,1002.04
2019-05-07T08:12:07.477Z,1001.93
2019-05-07T08:13:09.691Z,1002.04
2019-05-07T08:14:16.300Z,1002.07
2019-05-07T08:15:20.376Z,1002.04
2019-05-07T08:15:23.722Z,1002.04
2019-05-07T08:15:24.806Z,1002.04
2019-05-07T08:16:13.092Z,1001.95
2019-05-07T08:17:16.102Z,1001.99
2019-05-07T08:18:13.973Z,1001.93
2019-05-07T08:19:22.026Z,1001.99
2019-05-07T08:19:24.859Z,1001.99
2019-05-07T08:20:19.319Z,1001.99
2019-05-07T08:21:16.706Z,1002.02
2019-05-07T08:22:15.331Z,1001.98
2019-05-07T08:23:14.306Z,1001.99
2019-05-07T08:24:12.345Z,1001.96
2019-05-07T08:25:15.047Z,1001.96
2019-05-07T08:26:13.274Z,1002.01
2019-05-07T08:27:15.261Z,1001.99
2019-05-07T08:28:14.866Z,1002.02
2019-05-07T08:29:17.737Z,1001.99
2019-05-07T08:30:16.943Z,1002.05
2019-05-07T08:31:15.266Z,1001.99
2019-05-07T08:32:15.708Z,1001.92
2019-05-07T08:33:15.151Z,1001.99
2019-05-07T08:34:14.210Z,1001.98
2019-05-07T08:35:14.071Z,1001.98
2019-05-07T08:36:22.624Z,1002.05
2019-05-07T08:37:24.267Z,1001.96
2019-05-07T08:38:21.934Z,1002.01
2019-05-07T08:39:17.099Z,1001.9
2019-05-07T08:40:16.469Z,1002.02
2019-05-07T08:41:19.300Z,1002.04
2019-05-07T08:42:22.743Z,1002.02
2019-05-07T08:43:21.996Z,1001.98
2019-05-07T08:44:22.964Z,1001.98
2019-05-07T08:45:24.616Z,1001.95
2019-05-07T08:46:17.698Z,1001.96
2019-05-07T08:47:15.643Z,1001.82
2019-05-07T08:48:12.801Z,1001.99
2019-05-07T08:49:12.075Z,1001.98
2019-05-07T08:50:09.385Z,1001.89
2019-05-07T08:51:11.936Z,1001.93
2019-05-07T08:52:08.647Z,1001.9
2019-05-07T08:53:06.749Z,1001.93
2019-05-07T08:54:06.515Z,1001.85
2019-05-07T08:55:05.855Z,1001.85
2019-05-07T08:56:04.859Z,1001.89
2019-05-07T08:57:03.048Z,1001.99
2019-05-07T08:58:02.214Z,1001.89
2019-05-07T08:58:58.796Z,1001.92
2019-05-07T09:00:01.655Z,1001.92
2019-05-07T09:00:58.059Z,1001.88
2019-05-07T09:01:56.773Z,1001.88
2019-05-07T09:03:04.805Z,1001.89
2019-05-07T09:04:07.795Z,1001.79
2019-05-07T09:05:09.118Z,1001.82
2019-05-07T09:06:04.963Z,1001.86
2019-05-07T09:07:05.009Z,1001.83
2019-05-07T09:08:02.428Z,1001.8
2019-05-07T09:09:02.248Z,1001.83
2019-05-07T09:10:05.859Z,1001.82
2019-05-07T09:11:03.446Z,1001.77
2019-05-07T09:12:03.035Z,1001.77
2019-05-07T09:12:59.955Z,1001.82
2019-05-07T09:13:59.165Z,1001.76
2019-05-07T09:15:02.186Z,1001.83
2019-05-07T09:16:02.293Z,1001.82
2019-05-07T09:16:58.805Z,1001.74
2019-05-07T09:17:57.344Z,1001.77
2019-05-07T09:18:55.732Z,1001.73
2019-05-07T09:19:54.814Z,1001.77
2019-05-07T09:20:55.491Z,1001.71
2019-05-07T09:21:54.468Z,1001.76
2019-05-07T09:22:57.699Z,1001.67
2019-05-07T09:23:55.196Z,1001.74
2019-05-07T09:24:54.244Z,1001.67
2019-05-07T09:25:52.283Z,1001.64
2019-05-07T09:26:52.410Z,1001.61
2019-05-07T09:27:52.498Z,1001.68
2019-05-07T09:28:49.445Z,1001.58
2019-05-07T09:29:49.495Z,1001.65
2019-05-07T09:30:49.328Z,1001.7
2019-05-07T09:31:46.549Z,1001.64
2019-05-07T09:32:44.860Z,1001.65
2019-05-07T09:33:47.915Z,1001.58
2019-05-07T09:34:49.082Z,1001.55
2019-05-07T09:35:52.695Z,1001.61
2019-05-07T09:36:51.865Z,1001.64
2019-05-07T09:37:47.765Z,1001.57
2019-05-07T09:38:56.767Z,1001.58
2019-05-07T09:38:59.025Z,1001.58
2019-05-07T09:39:51.863Z,1001.55
2019-05-07T09:40:49.106Z,1001.61
2019-05-07T09:41:48.716Z,1001.63
2019-05-07T09:42:52.562Z,1001.58
2019-05-07T09:43:49.130Z,1001.58
2019-05-07T09:44:55.439Z,1001.57
2019-05-07T09:46:02.697Z,1001.54
2019-05-07T09:47:03.000Z,1001.63
2019-05-07T09:48:02.719Z,1001.58
2019-05-07T09:48:58.403Z,1001.55
2019-05-07T09:50:04.644Z,1001.58
2019-05-07T09:50:06.372Z,1001.58
2019-05-07T09:50:08.191Z,1001.58
2019-05-07T09:50:55.914Z,1001.63
2019-05-07T09:51:54.366Z,1001.51
2019-05-07T09:52:51.945Z,1001.57
2019-05-07T09:53:53.758Z,1001.58
2019-05-07T09:54:54.241Z,1001.55
2019-05-07T09:55:51.837Z,1001.64
2019-05-07T09:56:52.597Z,1001.63
2019-05-07T09:57:53.107Z,1001.54
2019-05-07T09:58:50.293Z,1001.55
2019-05-07T09:59:49.790Z,1001.49
2019-05-07T10:00:47.357Z,1001.49
2019-05-07T10:01:45.034Z,1001.61
2019-05-07T10:02:45.477Z,1001.55
2019-05-07T10:03:46.974Z,1001.54
2019-05-07T10:04:46.208Z,1001.52
2019-05-07T10:05:46.814Z,1001.46
2019-05-07T10:06:48.396Z,1001.49
2019-05-07T10:07:49.792Z,1001.48
2019-05-07T10:08:47.997Z,1001.44
2019-05-07T10:09:52.397Z,1001.44
2019-05-07T10:10:50.649Z,1001.44
2019-05-07T10:11:52.348Z,1001.44
2019-05-07T10:12:48.536Z,1001.46
2019-05-07T10:13:53.906Z,1001.44
2019-05-07T10:14:59.206Z,1001.47
2019-05-07T10:15:57.827Z,1001.48
2019-05-07T10:16:56.377Z,1001.48
2019-05-07T10:17:57.105Z,1001.54
2019-05-07T10:18:56.799Z,1001.55
2019-05-07T10:19:54.837Z,1001.46
2019-05-07T10:20:56.188Z,1001.4
2019-05-07T10:21:58.688Z,1001.43
2019-05-07T10:22:58.180Z,1001.47
2019-05-07T10:23:56.088Z,1001.43
2019-05-07T10:25:02.942Z,1001.48
2019-05-07T10:25:58.087Z,1001.47
2019-05-07T10:26:55.774Z,1001.39
2019-05-07T10:27:58.277Z,1001.54
2019-05-07T10:28:57.186Z,1001.54
2019-05-07T10:30:02.423Z,1001.37
2019-05-07T10:30:59.036Z,1001.4
2019-05-07T10:31:56.300Z,1001.39
2019-05-07T10:32:54.384Z,1001.39
2019-05-07T10:33:52.445Z,1001.4
2019-05-07T10:34:52.862Z,1001.44
2019-05-07T10:35:52.896Z,1001.34
2019-05-07T10:36:52.326Z,1001.46
2019-05-07T10:37:49.269Z,1001.39
2019-05-07T10:38:47.059Z,1001.44
2019-05-07T10:39:51.995Z,1001.33
2019-05-07T10:40:50.730Z,1001.4
2019-05-07T10:41:50.591Z,1001.4
2019-05-07T10:42:48.004Z,1001.37
2019-05-07T10:43:47.091Z,1001.36
2019-05-07T10:44:44.094Z,1001.43
2019-05-07T10:45:42.234Z,1001.43
2019-05-07T10:46:42.436Z,1001.41
2019-05-07T10:47:41.929Z,1001.34
2019-05-07T10:48:39.155Z,1001.3
2019-05-07T10:49:44.633Z,1001.36
2019-05-07T10:50:42.588Z,1001.4
2019-05-07T10:51:42.794Z,1001.33
2019-05-07T10:52:39.787Z,1001.34
2019-05-07T10:53:42.442Z,1001.24
2019-05-07T10:54:42.267Z,1001.34
2019-05-07T10:55:41.866Z,1001.3
2019-05-07T10:56:41.902Z,1001.28
2019-05-07T10:57:37.811Z,1001.3
2019-05-07T10:58:36.985Z,1001.31
2019-05-07T10:59:38.870Z,1001.22
2019-05-07T11:00:38.533Z,1001.16
2019-05-07T11:01:43.136Z,1001.21
2019-05-07T11:02:42.615Z,1001.18
2019-05-07T11:03:40.773Z,1001.19
2019-05-07T11:04:46.864Z,1001.09
2019-05-07T11:05:45.609Z,1001.15
2019-05-07T11:06:44.305Z,1001.13
2019-05-07T11:07:45.170Z,1001.13
2019-05-07T11:08:44.887Z,1001.11
2019-05-07T11:09:43.135Z,1001.13
2019-05-07T11:10:41.892Z,1001.18
2019-05-07T11:11:42.355Z,1001.15
2019-05-07T11:12:42.309Z,1001.05
2019-05-07T11:13:37.990Z,1001.06
2019-05-07T11:14:40.376Z,1001.09
2019-05-07T11:15:38.647Z,1001.06
2019-05-07T11:16:36.898Z,1001.12
2019-05-07T11:17:43.960Z,1000.97
2019-05-07T11:18:42.630Z,1001.06
2019-05-07T11:19:41.668Z,1001.11
2019-05-07T11:20:50.337Z,1001.02
2019-05-07T11:20:53.427Z,1001.02
2019-05-07T11:21:52.127Z,1001.02
2019-05-07T11:22:49.394Z,1001
2019-05-07T11:23:49.227Z,1000.97
2019-05-07T11:24:47.143Z,1001
2019-05-07T11:25:44.345Z,1000.97
2019-05-07T11:26:42.056Z,1000.97
2019-05-07T11:27:42.132Z,1000.94
2019-05-07T11:28:39.875Z,1000.88
2019-05-07T11:29:42.985Z,1000.97
2019-05-07T11:30:42.351Z,1000.99
2019-05-07T11:31:46.075Z,1000.9
2019-05-07T11:32:43.714Z,1000.9